OAL017 OJAI-OEMA
Flight info
| Callsign | OAL017 |
|---|---|
| Flight time | 1h 28m |
| Altitude | 35000 |
| Route | KULDI R652 GRY G662 ASH B544 HLF V174 LABKO |
| Aircraft | A20N/M-SDE2E3FGHIRWXY/LB1 |
Departure
| Time | 2026-04-26 13:19 |
|---|---|
| Airport | Queen Alia International Airport (OJAI) |
Arrival
| Time | 2026-04-26 14:47 |
|---|---|
| Airport | Prince Mohammad Bin Abdulaziz Airport (OEMA) |
| Time | Latitude | Longitude | Altitude | Speed | Heading |
|---|---|---|---|---|---|
| 2026-04-26 13:07 | 31.72435 | 35.98780 | 2421 ft | 0 kts | 204° |
| 2026-04-26 13:12 | 31.72452 | 35.98790 | 2440 ft | 4 kts | 204° |
| 2026-04-26 13:13 | 31.72477 | 35.98803 | 2418 ft | 4 kts | 204° |
| 2026-04-26 13:13 | 31.72502 | 35.98814 | 2420 ft | 4 kts | 177° |
| 2026-04-26 13:13 | 31.72514 | 35.98796 | 2420 ft | 0 kts | 62° |
| 2026-04-26 13:13 | 31.72515 | 35.98797 | 2420 ft | 1 kts | 62° |
| 2026-04-26 13:14 | 31.72523 | 35.98815 | 2420 ft | 4 kts | 62° |
| 2026-04-26 13:14 | 31.72541 | 35.98839 | 2421 ft | 4 kts | 34° |
| 2026-04-26 13:14 | 31.72577 | 35.98869 | 2421 ft | 10 kts | 34° |
| 2026-04-26 13:14 | 31.72645 | 35.98931 | 2421 ft | 14 kts | 49° |
| 2026-04-26 13:15 | 31.72690 | 35.99043 | 2421 ft | 17 kts | 79° |
| 2026-04-26 13:15 | 31.72715 | 35.99201 | 2421 ft | 23 kts | 79° |
| 2026-04-26 13:15 | 31.72748 | 35.99405 | 2421 ft | 28 kts | 79° |
| 2026-04-26 13:15 | 31.72786 | 35.99651 | 2421 ft | 33 kts | 80° |
| 2026-04-26 13:16 | 31.72827 | 35.99934 | 2421 ft | 37 kts | 81° |
| 2026-04-26 13:16 | 31.72871 | 36.00246 | 2421 ft | 40 kts | 80° |
| 2026-04-26 13:16 | 31.72919 | 36.00581 | 2421 ft | 43 kts | 79° |
| 2026-04-26 13:16 | 31.72984 | 36.00785 | 2421 ft | 16 kts | 20° |
| 2026-04-26 13:17 | 31.73062 | 36.00779 | 2421 ft | 4 kts | 353° |
| 2026-04-26 13:17 | 31.73118 | 36.00771 | 2420 ft | 12 kts | 353° |
| 2026-04-26 13:18 | 31.73207 | 36.00642 | 2419 ft | 12 kts | 262° |
| 2026-04-26 13:18 | 31.73190 | 36.00510 | 2420 ft | 32 kts | 261° |
| 2026-04-26 13:18 | 31.72951 | 35.98777 | 2512 ft | 167 kts | 257° |
| 2026-04-26 13:19 | 31.72771 | 35.97342 | 2994 ft | 188 kts | 260° |
| 2026-04-26 13:19 | 31.72558 | 35.95828 | 3771 ft | 190 kts | 262° |
| 2026-04-26 13:19 | 31.72303 | 35.94272 | 4422 ft | 203 kts | 260° |
| 2026-04-26 13:19 | 31.72029 | 35.92492 | 4826 ft | 237 kts | 262° |
| 2026-04-26 13:20 | 31.71661 | 35.90583 | 5419 ft | 248 kts | 249° |
| 2026-04-26 13:20 | 31.70745 | 35.88838 | 5943 ft | 257 kts | 224° |
| 2026-04-26 13:20 | 31.69215 | 35.87780 | 6671 ft | 259 kts | 198° |
| 2026-04-26 13:20 | 31.67423 | 35.87435 | 7353 ft | 263 kts | 187° |
| 2026-04-26 13:21 | 31.65583 | 35.87298 | 8035 ft | 266 kts | 186° |
| 2026-04-26 13:21 | 31.64328 | 35.87236 | 8548 ft | 269 kts | 183° |
| 2026-04-26 13:21 | 31.61857 | 35.87717 | 9535 ft | 279 kts | 163° |
| 2026-04-26 13:21 | 31.60192 | 35.88946 | 10263 ft | 293 kts | 141° |
| 2026-04-26 13:22 | 31.58985 | 35.91004 | 10645 ft | 322 kts | 120° |
| 2026-04-26 13:22 | 31.58211 | 35.93572 | 10965 ft | 346 kts | 109° |
| 2026-04-26 13:22 | 31.57704 | 35.96417 | 11281 ft | 366 kts | 103° |
| 2026-04-26 13:22 | 31.57321 | 35.99420 | 11765 ft | 377 kts | 102° |
| 2026-04-26 13:23 | 31.56961 | 36.02490 | 12382 ft | 384 kts | 102° |
| 2026-04-26 13:23 | 31.56570 | 36.05608 | 13064 ft | 388 kts | 103° |
| 2026-04-26 13:23 | 31.56135 | 36.08743 | 13759 ft | 392 kts | 104° |
| 2026-04-26 13:23 | 31.55658 | 36.11910 | 14362 ft | 396 kts | 105° |
| 2026-04-26 13:24 | 31.55151 | 36.15096 | 14961 ft | 400 kts | 105° |
| 2026-04-26 13:24 | 31.54623 | 36.18317 | 15535 ft | 405 kts | 105° |
| 2026-04-26 13:24 | 31.54083 | 36.21570 | 16156 ft | 409 kts | 105° |
| 2026-04-26 13:24 | 31.53536 | 36.24856 | 16778 ft | 412 kts | 105° |
| 2026-04-26 13:25 | 31.52986 | 36.28163 | 17426 ft | 415 kts | 105° |
| 2026-04-26 13:25 | 31.52386 | 36.31479 | 18074 ft | 416 kts | 110° |
| 2026-04-26 13:25 | 31.51353 | 36.34629 | 18623 ft | 414 kts | 121° |
| 2026-04-26 13:25 | 31.50021 | 36.37622 | 19123 ft | 415 kts | 126° |
| 2026-04-26 13:26 | 31.48539 | 36.40531 | 19666 ft | 417 kts | 128° |
| 2026-04-26 13:26 | 31.46971 | 36.43398 | 20226 ft | 419 kts | 130° |
| 2026-04-26 13:26 | 31.45358 | 36.46254 | 20745 ft | 422 kts | 130° |
| 2026-04-26 13:26 | 31.43747 | 36.49089 | 21273 ft | 426 kts | 130° |
| 2026-04-26 13:27 | 31.42102 | 36.51992 | 21747 ft | 430 kts | 130° |
| 2026-04-26 13:27 | 31.40450 | 36.54931 | 22229 ft | 434 kts | 130° |
| 2026-04-26 13:27 | 31.38783 | 36.57914 | 22669 ft | 440 kts | 130° |
| 2026-04-26 13:27 | 31.37104 | 36.60931 | 23153 ft | 445 kts | 130° |
| 2026-04-26 13:28 | 31.35412 | 36.63979 | 23603 ft | 449 kts | 130° |
| 2026-04-26 13:28 | 31.33707 | 36.67053 | 24008 ft | 452 kts | 130° |
| 2026-04-26 13:28 | 31.31987 | 36.70154 | 24431 ft | 456 kts | 130° |
| 2026-04-26 13:28 | 31.30256 | 36.73270 | 24843 ft | 459 kts | 130° |
| 2026-04-26 13:29 | 31.28512 | 36.76407 | 25226 ft | 462 kts | 129° |
| 2026-04-26 13:29 | 31.27326 | 36.78537 | 25484 ft | 464 kts | 129° |
| 2026-04-26 13:29 | 31.24981 | 36.82744 | 25990 ft | 468 kts | 129° |
| 2026-04-26 13:29 | 31.23200 | 36.85938 | 26365 ft | 471 kts | 129° |
| 2026-04-26 13:30 | 31.21405 | 36.89152 | 26725 ft | 474 kts | 129° |
| 2026-04-26 13:30 | 31.19597 | 36.92388 | 27081 ft | 477 kts | 129° |
| 2026-04-26 13:30 | 31.17778 | 36.95639 | 27430 ft | 479 kts | 129° |
| 2026-04-26 13:30 | 31.15951 | 36.98901 | 27770 ft | 482 kts | 129° |
| 2026-04-26 13:31 | 31.14111 | 37.02187 | 28111 ft | 484 kts | 129° |
| 2026-04-26 13:31 | 31.12267 | 37.05476 | 28468 ft | 486 kts | 129° |
| 2026-04-26 13:31 | 31.10408 | 37.08788 | 28788 ft | 488 kts | 129° |
| 2026-04-26 13:31 | 31.08542 | 37.12111 | 29120 ft | 491 kts | 129° |
| 2026-04-26 13:32 | 31.06669 | 37.15442 | 29528 ft | 492 kts | 129° |
| 2026-04-26 13:32 | 31.04796 | 37.18775 | 30013 ft | 490 kts | 130° |
| 2026-04-26 13:32 | 31.02927 | 37.22096 | 30390 ft | 490 kts | 130° |
| 2026-04-26 13:32 | 31.01050 | 37.25427 | 30702 ft | 492 kts | 130° |
| 2026-04-26 13:33 | 30.99167 | 37.28764 | 31025 ft | 493 kts | 130° |
| 2026-04-26 13:33 | 30.97277 | 37.32110 | 31341 ft | 494 kts | 130° |
| 2026-04-26 13:33 | 30.95383 | 37.35460 | 31674 ft | 495 kts | 130° |
| 2026-04-26 13:33 | 30.93488 | 37.38811 | 32004 ft | 496 kts | 130° |
| 2026-04-26 13:34 | 30.91584 | 37.42173 | 32333 ft | 497 kts | 130° |
| 2026-04-26 13:34 | 30.89675 | 37.45541 | 32646 ft | 499 kts | 130° |
| 2026-04-26 13:34 | 30.87761 | 37.48918 | 32938 ft | 500 kts | 130° |
| 2026-04-26 13:34 | 30.86490 | 37.51156 | 33070 ft | 502 kts | 130° |
| 2026-04-26 13:35 | 30.83904 | 37.55705 | 33356 ft | 506 kts | 131° |
| 2026-04-26 13:35 | 30.81954 | 37.59132 | 33594 ft | 508 kts | 131° |
| 2026-04-26 13:35 | 30.80028 | 37.62519 | 33896 ft | 509 kts | 131° |
| 2026-04-26 13:35 | 30.78075 | 37.65951 | 34155 ft | 509 kts | 131° |
| 2026-04-26 13:36 | 30.76118 | 37.69388 | 34403 ft | 510 kts | 131° |
| 2026-04-26 13:36 | 30.74158 | 37.72825 | 34632 ft | 510 kts | 131° |
| 2026-04-26 13:36 | 30.72192 | 37.76266 | 34788 ft | 512 kts | 131° |
| 2026-04-26 13:36 | 30.70216 | 37.79723 | 34902 ft | 515 kts | 131° |
| 2026-04-26 13:37 | 30.68232 | 37.83190 | 34922 ft | 515 kts | 131° |
| 2026-04-26 13:37 | 30.64266 | 37.90118 | 34923 ft | 515 kts | 131° |
| 2026-04-26 13:38 | 30.60296 | 37.97041 | 34911 ft | 515 kts | 131° |
| 2026-04-26 13:38 | 30.56314 | 38.03966 | 34930 ft | 516 kts | 131° |
| 2026-04-26 13:39 | 30.52320 | 38.10903 | 34938 ft | 517 kts | 131° |
| 2026-04-26 13:39 | 30.48326 | 38.17829 | 34936 ft | 517 kts | 131° |
| 2026-04-26 13:40 | 30.44323 | 38.24758 | 34942 ft | 518 kts | 131° |
| 2026-04-26 13:40 | 30.40309 | 38.31692 | 34946 ft | 519 kts | 131° |
| 2026-04-26 13:41 | 30.36287 | 38.38630 | 34949 ft | 519 kts | 131° |
| 2026-04-26 13:41 | 30.32262 | 38.45562 | 34947 ft | 519 kts | 131° |
| 2026-04-26 13:42 | 30.28234 | 38.52486 | 34945 ft | 519 kts | 131° |
| 2026-04-26 13:42 | 30.23956 | 38.59132 | 34952 ft | 507 kts | 143° |
| 2026-04-26 13:42 | 30.21360 | 38.61812 | 34952 ft | 493 kts | 154° |
| 2026-04-26 13:43 | 30.18532 | 38.63827 | 34954 ft | 477 kts | 165° |
| 2026-04-26 13:43 | 30.15499 | 38.65240 | 34955 ft | 465 kts | 173° |
| 2026-04-26 13:43 | 30.12380 | 38.66302 | 34942 ft | 459 kts | 176° |
| 2026-04-26 13:44 | 30.06226 | 38.67922 | 34958 ft | 456 kts | 179° |
| 2026-04-26 13:44 | 30.00022 | 38.69445 | 34936 ft | 456 kts | 179° |
| 2026-04-26 13:45 | 29.93812 | 38.71043 | 34960 ft | 458 kts | 178° |
| 2026-04-26 13:45 | 29.87597 | 38.72698 | 34961 ft | 459 kts | 178° |
| 2026-04-26 13:46 | 29.82430 | 38.74087 | 34963 ft | 459 kts | 178° |
| 2026-04-26 13:46 | 29.76216 | 38.75755 | 34967 ft | 459 kts | 178° |
| 2026-04-26 13:47 | 29.70000 | 38.77418 | 34964 ft | 458 kts | 178° |
| 2026-04-26 13:47 | 29.63789 | 38.79076 | 34965 ft | 458 kts | 178° |
| 2026-04-26 13:48 | 29.57578 | 38.80730 | 34964 ft | 458 kts | 178° |
| 2026-04-26 13:48 | 29.51371 | 38.82382 | 34971 ft | 458 kts | 178° |
| 2026-04-26 13:49 | 29.45162 | 38.84032 | 34981 ft | 458 kts | 178° |
| 2026-04-26 13:49 | 29.38953 | 38.85680 | 34986 ft | 458 kts | 178° |
| 2026-04-26 13:50 | 29.32742 | 38.87327 | 34982 ft | 458 kts | 178° |
| 2026-04-26 13:50 | 29.26536 | 38.88970 | 34964 ft | 458 kts | 178° |
| 2026-04-26 13:51 | 29.20328 | 38.90612 | 34989 ft | 458 kts | 178° |
| 2026-04-26 13:51 | 29.14108 | 38.92254 | 34993 ft | 459 kts | 178° |
| 2026-04-26 13:52 | 29.07932 | 38.93447 | 34993 ft | 450 kts | 184° |
| 2026-04-26 13:52 | 29.01734 | 38.94300 | 34969 ft | 448 kts | 185° |
| 2026-04-26 13:53 | 28.95539 | 38.95085 | 34996 ft | 448 kts | 185° |
| 2026-04-26 13:53 | 28.89335 | 38.95870 | 34996 ft | 448 kts | 185° |
| 2026-04-26 13:54 | 28.83132 | 38.96664 | 34998 ft | 449 kts | 185° |
| 2026-04-26 13:54 | 28.76927 | 38.97463 | 34977 ft | 449 kts | 185° |
| 2026-04-26 13:55 | 28.68628 | 38.98531 | 34997 ft | 449 kts | 185° |
| 2026-04-26 13:56 | 28.58315 | 38.99856 | 35009 ft | 449 kts | 185° |
| 2026-04-26 13:56 | 28.52111 | 39.00651 | 34988 ft | 449 kts | 186° |
| 2026-04-26 13:57 | 28.45907 | 39.01444 | 34999 ft | 449 kts | 185° |
| 2026-04-26 13:57 | 28.39697 | 39.02238 | 34999 ft | 449 kts | 185° |
| 2026-04-26 13:58 | 28.33488 | 39.03032 | 34998 ft | 449 kts | 186° |
| 2026-04-26 13:58 | 28.27322 | 39.03819 | 34997 ft | 449 kts | 186° |
| 2026-04-26 13:59 | 28.21110 | 39.04610 | 35005 ft | 449 kts | 186° |
| 2026-04-26 13:59 | 28.14899 | 39.05400 | 35007 ft | 449 kts | 186° |
| 2026-04-26 14:00 | 28.02472 | 39.06979 | 35014 ft | 449 kts | 186° |
| 2026-04-26 14:01 | 27.96266 | 39.07767 | 35014 ft | 449 kts | 186° |
| 2026-04-26 14:01 | 27.90050 | 39.08554 | 35012 ft | 449 kts | 186° |
| 2026-04-26 14:02 | 27.83837 | 39.09342 | 35018 ft | 449 kts | 186° |
| 2026-04-26 14:02 | 27.77624 | 39.10130 | 35011 ft | 449 kts | 186° |
| 2026-04-26 14:03 | 27.71411 | 39.10916 | 35016 ft | 449 kts | 186° |
| 2026-04-26 14:03 | 27.65204 | 39.11701 | 35015 ft | 449 kts | 186° |
| 2026-04-26 14:04 | 27.59029 | 39.12481 | 35007 ft | 449 kts | 186° |
| 2026-04-26 14:04 | 27.52815 | 39.13265 | 35012 ft | 449 kts | 186° |
| 2026-04-26 14:05 | 27.46594 | 39.14047 | 35015 ft | 450 kts | 186° |
| 2026-04-26 14:05 | 27.40375 | 39.14829 | 35011 ft | 450 kts | 186° |
| 2026-04-26 14:06 | 27.34145 | 39.15611 | 35012 ft | 450 kts | 186° |
| 2026-04-26 14:06 | 27.27920 | 39.16393 | 35014 ft | 450 kts | 186° |
| 2026-04-26 14:07 | 27.21700 | 39.17175 | 35009 ft | 450 kts | 186° |
| 2026-04-26 14:07 | 27.15481 | 39.17954 | 35014 ft | 450 kts | 186° |
| 2026-04-26 14:08 | 27.09262 | 39.18732 | 35011 ft | 450 kts | 186° |
| 2026-04-26 14:08 | 27.03043 | 39.19508 | 35007 ft | 450 kts | 186° |
| 2026-04-26 14:09 | 26.96820 | 39.20285 | 35007 ft | 450 kts | 186° |
| 2026-04-26 14:09 | 26.90597 | 39.21060 | 35004 ft | 450 kts | 186° |
| 2026-04-26 14:10 | 26.84413 | 39.21830 | 34974 ft | 450 kts | 186° |
| 2026-04-26 14:10 | 26.78193 | 39.22605 | 35000 ft | 450 kts | 186° |
| 2026-04-26 14:11 | 26.68860 | 39.23765 | 35004 ft | 450 kts | 186° |
| 2026-04-26 14:11 | 26.62633 | 39.24537 | 34998 ft | 450 kts | 186° |
| 2026-04-26 14:12 | 26.56407 | 39.25308 | 34994 ft | 450 kts | 186° |
| 2026-04-26 14:12 | 26.50186 | 39.26078 | 34996 ft | 450 kts | 186° |
| 2026-04-26 14:13 | 26.43947 | 39.27179 | 34992 ft | 466 kts | 176° |
| 2026-04-26 14:13 | 26.40860 | 39.28438 | 34995 ft | 478 kts | 168° |
| 2026-04-26 14:14 | 26.34796 | 39.31631 | 34993 ft | 485 kts | 165° |
| 2026-04-26 14:14 | 26.28783 | 39.35075 | 34990 ft | 486 kts | 164° |
| 2026-04-26 14:15 | 26.22776 | 39.38523 | 34988 ft | 485 kts | 164° |
| 2026-04-26 14:15 | 26.16776 | 39.41922 | 34984 ft | 484 kts | 164° |
| 2026-04-26 14:16 | 26.10766 | 39.45298 | 34985 ft | 484 kts | 164° |
| 2026-04-26 14:16 | 26.04753 | 39.48666 | 34959 ft | 484 kts | 164° |
| 2026-04-26 14:17 | 25.98742 | 39.52031 | 34979 ft | 483 kts | 164° |
| 2026-04-26 14:17 | 25.92740 | 39.55390 | 34984 ft | 483 kts | 164° |
| 2026-04-26 14:18 | 25.86731 | 39.58747 | 34983 ft | 483 kts | 164° |
| 2026-04-26 14:18 | 25.80723 | 39.62101 | 34993 ft | 483 kts | 164° |
| 2026-04-26 14:19 | 25.74752 | 39.65432 | 34965 ft | 483 kts | 164° |
| 2026-04-26 14:19 | 25.68743 | 39.68782 | 35001 ft | 483 kts | 164° |
| 2026-04-26 14:20 | 25.62738 | 39.72126 | 34997 ft | 483 kts | 164° |
| 2026-04-26 14:20 | 25.56727 | 39.75470 | 34994 ft | 483 kts | 164° |
| 2026-04-26 14:21 | 25.50719 | 39.78808 | 34997 ft | 483 kts | 164° |
| 2026-04-26 14:21 | 25.44707 | 39.82144 | 34984 ft | 483 kts | 163° |
| 2026-04-26 14:22 | 25.38569 | 39.84787 | 34993 ft | 460 kts | 180° |
| 2026-04-26 14:22 | 25.35450 | 39.85108 | 34995 ft | 442 kts | 192° |
| 2026-04-26 14:22 | 25.32463 | 39.84710 | 34994 ft | 426 kts | 202° |
| 2026-04-26 14:23 | 25.26777 | 39.83037 | 34990 ft | 421 kts | 206° |
| 2026-04-26 14:23 | 25.21204 | 39.81089 | 34967 ft | 420 kts | 207° |
| 2026-04-26 14:24 | 25.15615 | 39.79128 | 34981 ft | 422 kts | 207° |
| 2026-04-26 14:24 | 25.10049 | 39.77224 | 34976 ft | 422 kts | 206° |
| 2026-04-26 14:25 | 25.04434 | 39.75331 | 34967 ft | 422 kts | 206° |
| 2026-04-26 14:25 | 24.98736 | 39.73661 | 34955 ft | 434 kts | 197° |
| 2026-04-26 14:25 | 24.95660 | 39.73591 | 34965 ft | 452 kts | 185° |
| 2026-04-26 14:26 | 24.92519 | 39.73998 | 34966 ft | 457 kts | 182° |
| 2026-04-26 14:26 | 24.86202 | 39.75249 | 34967 ft | 463 kts | 179° |
| 2026-04-26 14:27 | 24.79888 | 39.76683 | 34958 ft | 463 kts | 178° |
| 2026-04-26 14:27 | 24.73572 | 39.78090 | 34937 ft | 463 kts | 179° |
| 2026-04-26 14:28 | 24.67243 | 39.79450 | 34957 ft | 464 kts | 179° |
| 2026-04-26 14:28 | 24.60898 | 39.80794 | 34885 ft | 466 kts | 179° |
| 2026-04-26 14:28 | 24.57723 | 39.81467 | 34340 ft | 463 kts | 179° |
| 2026-04-26 14:29 | 24.54553 | 39.82138 | 33269 ft | 466 kts | 179° |
| 2026-04-26 14:29 | 24.51352 | 39.82812 | 32083 ft | 471 kts | 178° |
| 2026-04-26 14:29 | 24.48125 | 39.83491 | 30896 ft | 475 kts | 178° |
| 2026-04-26 14:29 | 24.44866 | 39.84178 | 29677 ft | 479 kts | 178° |
| 2026-04-26 14:30 | 24.41580 | 39.84872 | 28329 ft | 481 kts | 177° |
| 2026-04-26 14:30 | 24.38297 | 39.85568 | 27099 ft | 480 kts | 176° |
| 2026-04-26 14:30 | 24.35037 | 39.86264 | 26310 ft | 470 kts | 176° |
| 2026-04-26 14:30 | 24.31901 | 39.86945 | 25933 ft | 450 kts | 176° |
| 2026-04-26 14:31 | 24.28890 | 39.87606 | 25531 ft | 433 kts | 176° |
| 2026-04-26 14:31 | 24.26030 | 39.88237 | 25137 ft | 417 kts | 176° |
| 2026-04-26 14:31 | 24.23239 | 39.88852 | 24736 ft | 402 kts | 176° |
| 2026-04-26 14:31 | 24.20548 | 39.89450 | 24355 ft | 388 kts | 176° |
| 2026-04-26 14:32 | 24.17945 | 39.90023 | 23988 ft | 376 kts | 176° |
| 2026-04-26 14:32 | 24.15424 | 39.90582 | 23599 ft | 365 kts | 176° |
| 2026-04-26 14:32 | 24.12966 | 39.91130 | 23162 ft | 355 kts | 176° |
| 2026-04-26 14:32 | 24.10575 | 39.91659 | 22716 ft | 347 kts | 176° |
| 2026-04-26 14:33 | 24.08216 | 39.92173 | 22285 ft | 345 kts | 176° |
| 2026-04-26 14:33 | 24.05865 | 39.92674 | 21847 ft | 344 kts | 176° |
| 2026-04-26 14:33 | 24.03522 | 39.93160 | 21417 ft | 342 kts | 176° |
| 2026-04-26 14:33 | 24.01183 | 39.93631 | 21009 ft | 341 kts | 176° |
| 2026-04-26 14:34 | 23.98791 | 39.94093 | 20614 ft | 361 kts | 176° |
| 2026-04-26 14:34 | 23.96228 | 39.94554 | 20206 ft | 385 kts | 176° |
| 2026-04-26 14:34 | 23.93513 | 39.95018 | 19808 ft | 404 kts | 176° |
| 2026-04-26 14:34 | 23.90686 | 39.95388 | 19413 ft | 409 kts | 183° |
| 2026-04-26 14:35 | 23.87918 | 39.95009 | 18679 ft | 396 kts | 199° |
| 2026-04-26 14:35 | 23.85458 | 39.93749 | 17542 ft | 389 kts | 217° |
| 2026-04-26 14:35 | 23.83557 | 39.91694 | 16493 ft | 382 kts | 236° |
| 2026-04-26 14:35 | 23.82426 | 39.89113 | 15529 ft | 376 kts | 254° |
| 2026-04-26 14:36 | 23.82159 | 39.87223 | 14920 ft | 373 kts | 267° |
| 2026-04-26 14:36 | 23.82821 | 39.83580 | 13681 ft | 373 kts | 292° |
| 2026-04-26 14:36 | 23.83712 | 39.81973 | 12993 ft | 375 kts | 304° |
| 2026-04-26 14:36 | 23.86426 | 39.79595 | 11714 ft | 380 kts | 331° |
| 2026-04-26 14:37 | 23.88080 | 39.78962 | 11105 ft | 382 kts | 343° |
| 2026-04-26 14:37 | 23.90690 | 39.78432 | 10445 ft | 382 kts | 348° |
| 2026-04-26 14:37 | 23.93321 | 39.78010 | 10090 ft | 382 kts | 351° |
| 2026-04-26 14:37 | 23.95968 | 39.77866 | 9983 ft | 372 kts | 358° |
| 2026-04-26 14:38 | 23.98454 | 39.77939 | 9982 ft | 342 kts | 360° |
| 2026-04-26 14:38 | 24.00731 | 39.78045 | 10018 ft | 317 kts | 360° |
| 2026-04-26 14:38 | 24.02898 | 39.78147 | 9656 ft | 308 kts | 360° |
| 2026-04-26 14:38 | 24.05034 | 39.78248 | 9056 ft | 306 kts | 359° |
| 2026-04-26 14:39 | 24.07154 | 39.78322 | 8469 ft | 304 kts | 358° |
| 2026-04-26 14:39 | 24.09261 | 39.78375 | 7892 ft | 301 kts | 358° |
| 2026-04-26 14:39 | 24.11340 | 39.78420 | 7417 ft | 295 kts | 358° |
| 2026-04-26 14:39 | 24.13378 | 39.78462 | 6901 ft | 291 kts | 358° |
| 2026-04-26 14:40 | 24.15397 | 39.78506 | 6461 ft | 287 kts | 356° |
| 2026-04-26 14:40 | 24.17393 | 39.78546 | 6319 ft | 288 kts | 356° |
| 2026-04-26 14:40 | 24.19375 | 39.78330 | 6201 ft | 286 kts | 348° |
| 2026-04-26 14:40 | 24.21330 | 39.77979 | 6084 ft | 284 kts | 346° |
| 2026-04-26 14:41 | 24.23266 | 39.77594 | 6037 ft | 282 kts | 345° |
| 2026-04-26 14:41 | 24.25185 | 39.77200 | 6023 ft | 276 kts | 345° |
| 2026-04-26 14:41 | 24.27017 | 39.76822 | 6014 ft | 260 kts | 345° |
| 2026-04-26 14:41 | 24.28745 | 39.76464 | 6007 ft | 245 kts | 345° |
| 2026-04-26 14:42 | 24.30375 | 39.76122 | 5920 ft | 234 kts | 345° |
| 2026-04-26 14:42 | 24.31950 | 39.75789 | 5775 ft | 225 kts | 344° |
| 2026-04-26 14:42 | 24.33434 | 39.75477 | 5625 ft | 212 kts | 343° |
| 2026-04-26 14:42 | 24.34856 | 39.75175 | 5416 ft | 203 kts | 342° |
| 2026-04-26 14:43 | 24.36199 | 39.74890 | 5296 ft | 190 kts | 343° |
| 2026-04-26 14:43 | 24.37459 | 39.74624 | 5186 ft | 179 kts | 343° |
| 2026-04-26 14:43 | 24.38648 | 39.74373 | 5004 ft | 169 kts | 343° |
| 2026-04-26 14:43 | 24.39769 | 39.74134 | 4797 ft | 158 kts | 340° |
| 2026-04-26 14:44 | 24.40812 | 39.73913 | 4594 ft | 150 kts | 340° |
| 2026-04-26 14:44 | 24.41835 | 39.73693 | 4396 ft | 150 kts | 340° |
| 2026-04-26 14:44 | 24.42866 | 39.73472 | 4188 ft | 151 kts | 341° |
| 2026-04-26 14:44 | 24.43893 | 39.73255 | 4005 ft | 150 kts | 343° |
| 2026-04-26 14:45 | 24.44895 | 39.73042 | 3823 ft | 148 kts | 342° |
| 2026-04-26 14:45 | 24.45579 | 39.72896 | 3701 ft | 148 kts | 341° |
| 2026-04-26 14:45 | 24.46916 | 39.72613 | 3460 ft | 148 kts | 340° |
| 2026-04-26 14:45 | 24.47925 | 39.72397 | 3282 ft | 148 kts | 340° |
| 2026-04-26 14:46 | 24.48934 | 39.72182 | 3096 ft | 148 kts | 340° |
| 2026-04-26 14:46 | 24.49945 | 39.71966 | 2896 ft | 148 kts | 341° |
| 2026-04-26 14:46 | 24.50955 | 39.71750 | 2687 ft | 148 kts | 347° |
| 2026-04-26 14:46 | 24.51962 | 39.71537 | 2487 ft | 147 kts | 346° |
| 2026-04-26 14:47 | 24.52963 | 39.71324 | 2303 ft | 145 kts | 347° |
| 2026-04-26 14:47 | 24.53959 | 39.71111 | 2125 ft | 146 kts | 344° |
| 2026-04-26 14:47 | 24.54821 | 39.70923 | 2116 ft | 86 kts | 349° |
| 2026-04-26 14:47 | 24.55154 | 39.70879 | 2113 ft | 23 kts | 349° |
| 2026-04-26 14:48 | 24.55259 | 39.70857 | 2112 ft | 14 kts | 347° |
| 2026-04-26 14:48 | 24.55298 | 39.70861 | 2112 ft | 1 kts | 67° |
| 2026-04-26 14:48 | 24.55301 | 39.70874 | 2114 ft | 2 kts | 90° |
| 2026-04-26 14:48 | 24.55290 | 39.70889 | 2112 ft | 6 kts | 139° |
| 2026-04-26 14:49 | 24.55234 | 39.70943 | 2112 ft | 12 kts | 139° |
| 2026-04-26 14:49 | 24.55230 | 39.70947 | 2112 ft | 0 kts | 139° |
| 2026-04-26 14:49 | 24.55213 | 39.70966 | 2112 ft | 7 kts | 124° |
| 2026-04-26 14:49 | 24.55215 | 39.71030 | 2110 ft | 13 kts | 81° |
| 2026-04-26 14:50 | 24.55237 | 39.71173 | 2108 ft | 24 kts | 81° |
| 2026-04-26 14:50 | 24.55259 | 39.71320 | 2108 ft | 0 kts | 81° |